createdAt,value
2023-04-02T00:01:44.036Z,13.70
2023-04-02T00:04:16.382Z,13.80
2023-04-02T00:06:45.980Z,13.90
2023-04-02T00:09:28.784Z,14.00
2023-04-02T00:11:55.743Z,14.00
2023-04-02T00:14:25.076Z,14.00
2023-04-02T00:16:53.091Z,13.90
2023-04-02T00:19:24.459Z,13.90
2023-04-02T00:21:52.232Z,14.00
2023-04-02T00:24:20.274Z,13.80
2023-04-02T00:26:48.536Z,13.80
2023-04-02T00:29:16.372Z,13.80
2023-04-02T00:31:44.404Z,13.80
2023-04-02T00:34:17.696Z,13.90
2023-04-02T00:36:44.474Z,14.00
2023-04-02T00:39:15.916Z,14.00
2023-04-02T00:41:46.875Z,14.00
2023-04-02T00:44:14.762Z,13.90
2023-04-02T00:46:49.752Z,13.90
2023-04-02T00:49:16.682Z,13.90
2023-04-02T00:52:02.761Z,13.90
2023-04-02T00:54:31.639Z,13.90
2023-04-02T00:56:58.833Z,13.80
2023-04-02T00:59:33.106Z,13.80
2023-04-02T01:02:04.099Z,13.80
2023-04-02T01:04:34.807Z,13.90
2023-04-02T01:07:05.092Z,13.90
2023-04-02T01:09:57.166Z,13.90
2023-04-02T01:12:44.752Z,13.80
2023-04-02T01:15:18.341Z,13.90
2023-04-02T01:17:54.567Z,13.90
2023-04-02T01:20:34.236Z,13.80
2023-04-02T01:23:34.670Z,13.80
2023-04-02T01:26:07.313Z,13.70
2023-04-02T01:28:52.258Z,13.80
2023-04-02T01:31:19.224Z,13.80
2023-04-02T01:33:46.448Z,13.80
2023-04-02T01:36:16.312Z,13.80
2023-04-02T01:38:58.304Z,13.80
2023-04-02T01:41:32.947Z,13.70
2023-04-02T01:44:03.147Z,13.80
2023-04-02T01:46:32.016Z,13.70
2023-04-02T01:49:01.192Z,13.80
2023-04-02T01:51:39.995Z,13.70
2023-04-02T01:54:10.476Z,13.80
2023-04-02T01:56:37.204Z,13.80
2023-04-02T01:59:06.116Z,13.80
2023-04-02T02:01:36.272Z,13.80
2023-04-02T02:04:03.085Z,13.80
2023-04-02T02:06:30.141Z,13.80
2023-04-02T02:09:00.012Z,13.80
2023-04-02T02:11:28.472Z,13.70
2023-04-02T02:13:56.674Z,13.80
2023-04-02T02:16:24.148Z,13.80
2023-04-02T02:18:56.222Z,13.80
2023-04-02T02:21:35.817Z,13.90
2023-04-02T02:24:04.825Z,13.90
2023-04-02T02:26:34.059Z,13.90
2023-04-02T02:29:01.832Z,13.90
2023-04-02T02:31:31.251Z,14.00
2023-04-02T02:34:02.984Z,13.80
2023-04-02T02:36:40.155Z,13.80
2023-04-02T02:39:18.831Z,13.70
2023-04-02T02:41:48.332Z,13.70
2023-04-02T02:44:21.131Z,13.70
2023-04-02T02:47:00.257Z,13.80
2023-04-02T02:49:35.170Z,13.80
2023-04-02T02:52:12.842Z,13.80
2023-04-02T02:55:00.184Z,13.80
2023-04-02T02:57:29.961Z,13.70
2023-04-02T02:59:58.181Z,13.70
2023-04-02T03:02:26.587Z,13.60
2023-04-02T03:04:54.113Z,13.60
2023-04-02T03:07:25.540Z,13.70
2023-04-02T03:10:11.383Z,13.70
2023-04-02T03:12:58.309Z,13.90
2023-04-02T03:15:34.579Z,14.00
2023-04-02T03:18:17.925Z,14.00
2023-04-02T03:20:49.559Z,14.10
2023-04-02T03:23:17.429Z,14.10
2023-04-02T03:25:48.281Z,13.90
2023-04-02T03:28:18.804Z,13.80
2023-04-02T03:30:51.169Z,13.80
2023-04-02T03:33:23.618Z,13.70
2023-04-02T03:36:00.007Z,13.80
2023-04-02T03:38:36.372Z,13.80
2023-04-02T03:41:18.512Z,13.70
2023-04-02T03:43:51.628Z,13.70
2023-04-02T03:46:24.904Z,13.70
2023-04-02T03:48:54.591Z,13.70
2023-04-02T03:51:24.102Z,13.70
2023-04-02T03:53:50.917Z,13.70
2023-04-02T03:56:32.168Z,13.60
2023-04-02T03:59:06.455Z,13.60
2023-04-02T04:01:35.263Z,13.70
2023-04-02T04:04:05.901Z,13.70
2023-04-02T04:06:33.563Z,13.70
2023-04-02T04:09:24.306Z,13.80
2023-04-02T04:11:58.499Z,13.80
2023-04-02T04:14:32.864Z,13.80
2023-04-02T04:17:04.523Z,13.70
2023-04-02T04:19:38.094Z,13.70
2023-04-02T04:22:09.738Z,13.80
2023-04-02T04:24:39.477Z,13.60
2023-04-02T04:27:10.108Z,13.60
2023-04-02T04:29:49.095Z,13.60
2023-04-02T04:32:27.911Z,13.60
2023-04-02T04:35:14.964Z,13.60
2023-04-02T04:37:43.526Z,13.50
2023-04-02T04:40:24.440Z,13.60
2023-04-02T04:42:52.972Z,13.60
2023-04-02T04:45:22.447Z,13.50
2023-04-02T04:47:55.097Z,13.60
2023-04-02T04:50:33.064Z,13.40
2023-04-02T04:53:07.567Z,13.50
2023-04-02T04:55:34.517Z,13.60
2023-04-02T04:58:08.746Z,13.50
2023-04-02T05:00:58.568Z,13.70
2023-04-02T05:03:29.104Z,14.00
2023-04-02T05:05:59.955Z,14.10
2023-04-02T05:08:38.932Z,14.20
2023-04-02T05:11:08.617Z,14.20
2023-04-02T05:13:51.266Z,14.30
2023-04-02T05:16:18.068Z,14.30
2023-04-02T05:18:53.976Z,14.20
2023-04-02T05:21:26.447Z,14.20
2023-04-02T05:24:13.421Z,14.20
2023-04-02T05:26:42.208Z,14.20
2023-04-02T05:29:17.287Z,14.20
2023-04-02T05:31:46.736Z,14.10
2023-04-02T05:34:13.922Z,14.20
2023-04-02T05:36:40.806Z,14.30
2023-04-02T05:39:11.165Z,14.20
2023-04-02T05:41:40.164Z,14.30
2023-04-02T05:44:16.074Z,14.40
2023-04-02T05:46:46.508Z,14.30
2023-04-02T05:49:23.445Z,14.30
2023-04-02T05:51:52.634Z,14.30
2023-04-02T05:54:24.642Z,14.40
2023-04-02T05:56:54.201Z,14.30
2023-04-02T05:59:29.407Z,14.30
2023-04-02T06:02:19.336Z,14.40
2023-04-02T06:04:49.248Z,14.40
2023-04-02T06:07:15.962Z,14.30
2023-04-02T06:09:46.910Z,14.30
2023-04-02T06:12:32.271Z,14.40
2023-04-02T06:14:59.231Z,14.40
2023-04-02T06:17:27.400Z,14.40
2023-04-02T06:19:56.131Z,14.40
2023-04-02T06:22:37.157Z,14.40
2023-04-02T06:25:13.470Z,14.40
2023-04-02T06:27:41.526Z,14.40
2023-04-02T06:30:14.206Z,14.40
2023-04-02T06:32:41.089Z,14.10
2023-04-02T06:35:12.445Z,14.00
2023-04-02T06:37:40.324Z,14.00
2023-04-02T06:40:17.552Z,13.80
2023-04-02T06:42:45.670Z,13.80
2023-04-02T06:45:26.921Z,13.90
2023-04-02T06:47:55.544Z,13.90
2023-04-02T06:50:41.096Z,14.10
2023-04-02T06:53:15.892Z,14.20
2023-04-02T06:55:54.283Z,14.20
2023-04-02T06:58:21.334Z,14.20
2023-04-02T07:00:48.977Z,14.10
2023-04-02T07:03:19.707Z,14.20
2023-04-02T07:05:46.584Z,14.20
2023-04-02T07:08:13.362Z,14.20
2023-04-02T07:10:40.315Z,14.20
2023-04-02T07:13:07.069Z,14.30
2023-04-02T07:15:34.080Z,14.40
2023-04-02T07:18:01.584Z,14.30
2023-04-02T07:20:30.486Z,14.30
2023-04-02T07:22:57.267Z,14.40
2023-04-02T07:25:24.587Z,14.40
2023-04-02T07:27:52.336Z,14.30
2023-04-02T07:30:19.194Z,14.30
2023-04-02T07:32:46.622Z,14.30
2023-04-02T07:35:13.924Z,14.30
2023-04-02T07:37:40.762Z,14.30
2023-04-02T07:40:15.670Z,14.30
2023-04-02T07:42:42.583Z,14.20
2023-04-02T07:45:09.567Z,14.20
2023-04-02T07:47:36.470Z,14.20
2023-04-02T07:50:03.774Z,14.20
2023-04-02T07:52:31.559Z,14.20
2023-04-02T07:54:58.368Z,14.20
2023-04-02T07:57:25.145Z,14.30
2023-04-02T07:59:52.027Z,14.30
2023-04-02T08:02:22.122Z,14.40
2023-04-02T08:04:49.721Z,14.40
2023-04-02T08:07:16.531Z,14.40
2023-04-02T08:09:43.823Z,14.20
2023-04-02T08:12:13.879Z,14.10
2023-04-02T08:14:40.714Z,14.10
2023-04-02T08:17:07.596Z,14.00
2023-04-02T08:19:44.436Z,14.00
2023-04-02T08:22:18.792Z,14.00
2023-04-02T08:24:45.486Z,14.00
2023-04-02T08:27:14.533Z,14.00
2023-04-02T08:29:41.381Z,14.00
2023-04-02T08:32:11.458Z,14.10
2023-04-02T08:34:38.176Z,14.20
2023-04-02T08:37:04.981Z,14.20
2023-04-02T08:39:33.183Z,14.20
2023-04-02T08:41:59.867Z,14.20
2023-04-02T08:44:36.751Z,14.30
2023-04-02T08:47:05.301Z,14.30
2023-04-02T08:49:35.859Z,14.30
2023-04-02T08:52:02.716Z,14.30
2023-04-02T08:54:31.234Z,14.30
2023-04-02T08:57:17.208Z,14.40
2023-04-02T08:59:44.461Z,14.30
2023-04-02T09:02:29.819Z,14.40
2023-04-02T09:04:57.409Z,14.40
2023-04-02T09:07:24.550Z,14.40
2023-04-02T09:09:51.606Z,14.40
2023-04-02T09:12:19.728Z,14.40
2023-04-02T09:14:52.338Z,14.40
2023-04-02T09:17:20.529Z,14.40
2023-04-02T09:19:58.995Z,14.40
2023-04-02T09:22:31.745Z,14.50
2023-04-02T09:24:59.911Z,14.40
2023-04-02T09:27:30.677Z,14.50
2023-04-02T09:30:03.333Z,14.50
2023-04-02T09:32:48.872Z,14.50
2023-04-02T09:35:26.478Z,14.50
2023-04-02T09:38:17.403Z,14.50
2023-04-02T09:40:50.066Z,14.70
2023-04-02T09:43:24.865Z,14.80
2023-04-02T09:45:59.436Z,14.70
2023-04-02T09:48:30.834Z,14.70
2023-04-02T09:51:12.007Z,14.70
2023-04-02T09:53:43.890Z,14.80
2023-04-02T09:56:17.848Z,14.70
2023-04-02T09:58:47.515Z,14.70
2023-04-02T10:01:34.717Z,14.70
2023-04-02T10:04:02.312Z,14.70
2023-04-02T10:06:30.045Z,14.80
2023-04-02T10:08:56.968Z,14.80
2023-04-02T10:11:36.428Z,14.70
2023-04-02T10:14:17.578Z,14.80
2023-04-02T10:16:51.964Z,14.70
2023-04-02T10:19:27.277Z,14.80
2023-04-02T10:21:54.726Z,14.80
2023-04-02T10:24:21.709Z,14.70
2023-04-02T10:26:49.042Z,14.70
2023-04-02T10:29:23.545Z,14.70
2023-04-02T10:31:56.500Z,14.70
2023-04-02T10:34:26.510Z,14.80
2023-04-02T10:36:54.749Z,14.80
2023-04-02T10:39:31.455Z,14.80
2023-04-02T10:42:04.127Z,14.80
2023-04-02T10:44:30.867Z,14.80
2023-04-02T10:47:16.440Z,14.90
2023-04-02T10:49:50.837Z,14.90
2023-04-02T10:52:17.600Z,14.80
2023-04-02T10:54:51.519Z,14.80
2023-04-02T10:57:18.293Z,14.90
2023-04-02T10:59:48.932Z,14.90
2023-04-02T11:02:33.647Z,14.90
2023-04-02T11:05:02.927Z,14.90
2023-04-02T11:07:32.436Z,14.90
2023-04-02T11:10:00.129Z,14.90
2023-04-02T11:12:36.565Z,14.90
2023-04-02T11:15:13.928Z,15.00
2023-04-02T11:17:40.734Z,15.00
2023-04-02T11:20:26.094Z,15.00
2023-04-02T11:23:11.620Z,15.00
2023-04-02T11:25:38.395Z,15.00
2023-04-02T11:28:28.195Z,15.00
2023-04-02T11:30:56.094Z,15.00
2023-04-02T11:33:38.113Z,15.00
2023-04-02T11:36:29.269Z,15.10
2023-04-02T11:39:01.878Z,15.10
2023-04-02T11:41:56.319Z,15.10
2023-04-02T11:44:24.167Z,15.20
2023-04-02T11:46:51.664Z,15.20
2023-04-02T11:49:36.078Z,15.20
2023-04-02T11:52:11.518Z,15.20
2023-04-02T11:54:39.085Z,15.10
2023-04-02T11:57:38.166Z,15.20
2023-04-02T12:00:23.753Z,15.20
2023-04-02T12:03:17.191Z,15.20
2023-04-02T12:05:50.945Z,15.20
2023-04-02T12:08:28.740Z,15.20
2023-04-02T12:10:57.340Z,15.20
2023-04-02T12:13:42.145Z,15.10
2023-04-02T12:16:10.585Z,15.10
2023-04-02T12:18:42.518Z,15.20
2023-04-02T12:21:14.675Z,15.10
2023-04-02T12:23:45.048Z,15.10
2023-04-02T12:26:30.302Z,15.00
2023-04-02T12:29:17.446Z,15.00
2023-04-02T12:31:48.137Z,15.10
2023-04-02T12:34:17.044Z,15.10
2023-04-02T12:36:53.967Z,15.20
2023-04-02T12:39:21.483Z,15.20
2023-04-02T12:41:48.281Z,15.20
2023-04-02T12:44:20.201Z,15.20
2023-04-02T12:46:47.986Z,15.30
2023-04-02T12:49:33.554Z,15.30
2023-04-02T12:52:02.486Z,15.30
2023-04-02T12:54:30.717Z,15.30
2023-04-02T12:57:17.564Z,15.40
2023-04-02T12:59:44.492Z,15.40
2023-04-02T13:02:19.052Z,15.40
2023-04-02T13:04:49.077Z,15.40
2023-04-02T13:07:17.470Z,15.40
2023-04-02T13:09:48.574Z,15.40
2023-04-02T13:12:24.376Z,15.30
2023-04-02T13:14:56.065Z,15.40
2023-04-02T13:18:01.646Z,15.50
2023-04-02T13:20:28.770Z,15.60
2023-04-02T13:22:55.906Z,15.50
2023-04-02T13:25:27.456Z,15.60
2023-04-02T13:27:54.844Z,15.60
2023-04-02T13:30:25.899Z,15.60
2023-04-02T13:32:52.898Z,15.60
2023-04-02T13:35:19.942Z,15.60
2023-04-02T13:37:46.758Z,15.60
2023-04-02T13:40:16.747Z,15.60
2023-04-02T13:42:43.857Z,15.70
2023-04-02T13:45:30.919Z,15.60
2023-04-02T13:48:01.182Z,15.60
2023-04-02T13:50:29.180Z,15.70
2023-04-02T13:52:57.513Z,15.70
2023-04-02T13:55:25.891Z,15.70
2023-04-02T13:57:52.691Z,15.70
2023-04-02T14:00:19.959Z,15.80
2023-04-02T14:02:53.093Z,15.80
2023-04-02T14:05:27.270Z,15.80
2023-04-02T14:08:05.159Z,15.70
2023-04-02T14:10:40.950Z,15.80
2023-04-02T14:13:28.260Z,15.80
2023-04-02T14:16:06.917Z,15.80
2023-04-02T14:18:52.330Z,15.80
2023-04-02T14:21:54.436Z,15.70
2023-04-02T14:24:23.974Z,15.80
2023-04-02T14:26:55.461Z,15.80
2023-04-02T14:29:32.063Z,15.80
2023-04-02T14:32:14.040Z,15.80
2023-04-02T14:34:49.748Z,15.80
2023-04-02T14:37:19.022Z,15.80
2023-04-02T14:40:04.470Z,15.80
2023-04-02T14:42:34.368Z,15.80
2023-04-02T14:45:05.144Z,15.80
2023-04-02T14:47:53.969Z,15.80
2023-04-02T14:50:27.989Z,15.70
2023-04-02T14:52:57.327Z,15.60
2023-04-02T14:55:35.092Z,15.50
2023-04-02T14:58:04.289Z,15.50
2023-04-02T15:00:42.184Z,15.40
2023-04-02T15:03:44.843Z,15.40
2023-04-02T15:06:13.622Z,15.50
2023-04-02T15:09:09.005Z,15.60
2023-04-02T15:11:38.464Z,15.60
2023-04-02T15:14:11.213Z,15.70
2023-04-02T15:16:38.009Z,15.70
2023-04-02T15:19:10.539Z,15.70
2023-04-02T15:21:46.372Z,15.60
2023-04-02T15:24:41.001Z,15.70
2023-04-02T15:27:28.009Z,15.80
2023-04-02T15:29:58.009Z,15.70
2023-04-02T15:32:36.253Z,15.60
2023-04-02T15:35:21.168Z,15.60
2023-04-02T15:37:52.552Z,15.40
2023-04-02T15:40:35.083Z,15.40
2023-04-02T15:43:08.040Z,15.40
2023-04-02T15:45:49.061Z,15.50
2023-04-02T15:48:18.610Z,15.50
2023-04-02T15:50:59.218Z,15.50
2023-04-02T15:53:28.782Z,15.60
2023-04-02T15:55:55.844Z,15.60
2023-04-02T15:58:50.224Z,15.70
2023-04-02T16:01:17.264Z,15.60
2023-04-02T16:03:53.382Z,15.60
2023-04-02T16:06:23.576Z,15.60
2023-04-02T16:08:57.356Z,15.60
2023-04-02T16:11:24.640Z,15.60
2023-04-02T16:13:52.538Z,15.60
2023-04-02T16:16:22.608Z,15.60
2023-04-02T16:18:52.192Z,15.60
2023-04-02T16:21:23.137Z,15.60
2023-04-02T16:23:49.955Z,15.60
2023-04-02T16:26:19.672Z,15.60
2023-04-02T16:28:51.338Z,15.60
2023-04-02T16:31:26.689Z,15.60
2023-04-02T16:33:56.773Z,15.50
2023-04-02T16:36:30.495Z,15.50
2023-04-02T16:39:11.469Z,15.40
2023-04-02T16:41:53.459Z,15.40
2023-04-02T16:44:26.328Z,15.40
2023-04-02T16:47:11.552Z,15.40
2023-04-02T16:49:38.546Z,15.30
2023-04-02T16:52:22.578Z,15.30
2023-04-02T16:55:01.537Z,15.30
2023-04-02T16:57:46.400Z,15.30
2023-04-02T17:00:31.964Z,15.30
2023-04-02T17:03:02.138Z,15.20
2023-04-02T17:05:33.507Z,15.30
2023-04-02T17:08:11.344Z,15.30
2023-04-02T17:10:41.121Z,15.30
2023-04-02T17:13:16.952Z,15.30
2023-04-02T17:15:46.098Z,15.30
2023-04-02T17:18:24.811Z,15.30
2023-04-02T17:20:51.673Z,15.40
2023-04-02T17:23:19.664Z,15.30
2023-04-02T17:25:53.109Z,15.30
2023-04-02T17:28:36.729Z,15.20
2023-04-02T17:31:35.052Z,15.30
2023-04-02T17:34:09.946Z,15.30
2023-04-02T17:36:39.724Z,15.30
2023-04-02T17:39:09.671Z,15.30
2023-04-02T17:41:40.565Z,15.40
2023-04-02T17:44:26.940Z,15.40
2023-04-02T17:46:53.767Z,15.40
2023-04-02T17:49:22.830Z,15.30
2023-04-02T17:51:58.097Z,15.20
2023-04-02T17:54:27.788Z,15.20
2023-04-02T17:57:14.816Z,15.20
2023-04-02T17:59:47.393Z,15.20
2023-04-02T18:02:14.100Z,15.20
2023-04-02T18:04:46.918Z,15.10
2023-04-02T18:07:35.654Z,15.10
2023-04-02T18:10:08.795Z,15.10
2023-04-02T18:12:38.219Z,15.10
2023-04-02T18:15:14.160Z,15.10
2023-04-02T18:17:49.880Z,15.10
2023-04-02T18:20:23.058Z,15.10
2023-04-02T18:22:56.402Z,15.10
2023-04-02T18:25:27.680Z,15.10
2023-04-02T18:28:17.711Z,15.10
2023-04-02T18:30:48.011Z,15.10
2023-04-02T18:33:25.916Z,15.10
2023-04-02T18:35:59.975Z,15.00
2023-04-02T18:38:47.574Z,15.00
2023-04-02T18:41:14.333Z,15.00
2023-04-02T18:43:41.385Z,15.10
2023-04-02T18:46:31.480Z,15.10
2023-04-02T18:49:06.218Z,15.10
2023-04-02T18:51:35.404Z,15.10
2023-04-02T18:54:13.507Z,15.00
2023-04-02T18:56:40.645Z,15.10
2023-04-02T18:59:22.457Z,15.00
2023-04-02T19:01:51.390Z,15.00
2023-04-02T19:04:20.540Z,15.00
2023-04-02T19:06:49.522Z,15.00
2023-04-02T19:09:22.217Z,15.00
2023-04-02T19:11:49.118Z,15.00
2023-04-02T19:14:20.073Z,15.00
2023-04-02T19:16:52.636Z,15.00
2023-04-02T19:19:19.333Z,15.00
2023-04-02T19:22:04.913Z,15.00
2023-04-02T19:24:31.727Z,14.90
2023-04-02T19:27:07.666Z,14.80
2023-04-02T19:29:52.859Z,14.80
2023-04-02T19:32:27.711Z,14.90
2023-04-02T19:35:00.667Z,14.80
2023-04-02T19:37:27.402Z,14.70
2023-04-02T19:39:54.117Z,14.70
2023-04-02T19:42:23.762Z,14.70
2023-04-02T19:44:51.152Z,14.70
2023-04-02T19:47:18.654Z,14.70
2023-04-02T19:49:45.674Z,14.70
2023-04-02T19:52:12.528Z,14.80
2023-04-02T19:54:39.715Z,14.70
2023-04-02T19:57:06.516Z,14.70
2023-04-02T19:59:33.307Z,14.80
2023-04-02T20:02:02.291Z,14.80
2023-04-02T20:04:29.054Z,14.60
2023-04-02T20:06:55.996Z,14.70
2023-04-02T20:09:23.551Z,14.70
2023-04-02T20:11:50.627Z,14.70
2023-04-02T20:14:17.561Z,14.70
2023-04-02T20:16:45.778Z,14.60
2023-04-02T20:19:12.776Z,14.60
2023-04-02T20:21:39.531Z,14.60
2023-04-02T20:24:07.094Z,14.60
2023-04-02T20:26:34.853Z,14.60
2023-04-02T20:29:01.648Z,14.60
2023-04-02T20:31:28.502Z,14.60
2023-04-02T20:33:56.552Z,14.70
2023-04-02T20:36:24.734Z,14.70
2023-04-02T20:38:51.676Z,14.60
2023-04-02T20:41:19.096Z,14.60
2023-04-02T20:43:45.837Z,14.60
2023-04-02T20:46:13.279Z,14.60
2023-04-02T20:48:40.275Z,14.60
2023-04-02T20:51:08.242Z,14.60
2023-04-02T20:53:36.500Z,14.50
2023-04-02T20:56:10.174Z,14.50
2023-04-02T20:58:37.653Z,14.30
2023-04-02T21:01:16.524Z,14.30
2023-04-02T21:03:43.831Z,14.40
2023-04-02T21:06:14.895Z,14.40
2023-04-02T21:08:41.940Z,14.50
2023-04-02T21:11:09.068Z,14.50
2023-04-02T21:13:38.953Z,14.30
2023-04-02T21:16:12.264Z,14.30
2023-04-02T21:18:39.074Z,14.30
2023-04-02T21:21:07.066Z,14.30
2023-04-02T21:23:34.202Z,14.30
2023-04-02T21:26:03.035Z,14.20
2023-04-02T21:28:30.122Z,14.30
2023-04-02T21:31:07.178Z,14.40
2023-04-02T21:33:38.448Z,14.40
2023-04-02T21:36:08.970Z,14.40
2023-04-02T21:38:36.579Z,14.30
2023-04-02T21:41:10.526Z,14.30
2023-04-02T21:43:37.521Z,14.30
2023-04-02T21:46:04.932Z,14.40
2023-04-02T21:48:31.828Z,14.30
2023-04-02T21:51:24.627Z,14.40
2023-04-02T21:53:54.192Z,14.20
2023-04-02T21:56:26.357Z,14.20
2023-04-02T21:58:53.586Z,14.10
2023-04-02T22:01:27.155Z,14.20
2023-04-02T22:03:58.453Z,14.30
2023-04-02T22:06:26.316Z,14.20
2023-04-02T22:08:54.500Z,14.10
2023-04-02T22:11:22.602Z,14.10
2023-04-02T22:13:49.990Z,14.00
2023-04-02T22:16:17.780Z,13.90
2023-04-02T22:18:45.011Z,13.90
2023-04-02T22:21:12.290Z,14.10
2023-04-02T22:23:39.367Z,14.20
2023-04-02T22:26:06.752Z,14.20
2023-04-02T22:28:34.200Z,14.30
2023-04-02T22:31:07.287Z,14.40
2023-04-02T22:33:34.474Z,14.50
2023-04-02T22:36:01.483Z,14.40
2023-04-02T22:38:28.571Z,14.40
2023-04-02T22:41:04.603Z,14.40
2023-04-02T22:43:31.815Z,14.40
2023-04-02T22:45:58.564Z,14.40
2023-04-02T22:48:25.334Z,14.40
2023-04-02T22:50:52.140Z,14.40
2023-04-02T22:53:19.061Z,14.40
2023-04-02T22:55:46.222Z,14.20
2023-04-02T22:58:12.995Z,14.20
2023-04-02T23:00:39.835Z,14.10
2023-04-02T23:03:06.938Z,14.00
2023-04-02T23:05:33.680Z,14.10
2023-04-02T23:08:00.406Z,14.20
2023-04-02T23:10:29.006Z,14.30
2023-04-02T23:12:57.449Z,14.40
2023-04-02T23:15:24.169Z,14.40
2023-04-02T23:17:50.965Z,14.40
2023-04-02T23:20:17.804Z,14.40
2023-04-02T23:22:44.546Z,14.10
2023-04-02T23:25:11.309Z,13.90
2023-04-02T23:27:38.071Z,13.90
2023-04-02T23:30:05.377Z,13.80
2023-04-02T23:32:32.098Z,14.00
2023-04-02T23:34:58.882Z,14.10
2023-04-02T23:37:25.597Z,14.20
2023-04-02T23:39:52.450Z,14.20
2023-04-02T23:42:19.192Z,14.00
2023-04-02T23:44:46.121Z,13.80
2023-04-02T23:47:12.951Z,13.80
2023-04-02T23:49:39.681Z,14.00
2023-04-02T23:52:06.530Z,14.20
2023-04-02T23:54:33.329Z,14.20
2023-04-02T23:57:00.084Z,14.30
2023-04-02T23:59:26.894Z,14.30
